Time;durP1;ratioP1;P1;durP2;ratioP2;P2;SDS_P1;SDS_P2;PMS_P1;PMS_P2;Temp;Humidity;BMP_temperature;BMP_pressure;BME280_temperature;BME280_humidity;BME280_pressure;Samples;Min_cycle;Max_cycle;Signal;HPM_P1;HPM_P2
2023/12/29 00:01:01;;;;;;;4.83;4.53;;;7.80;70.40;;;;;;6284213;28;20241;-77
2023/12/29 00:04:04;;;;;;;3.50;3.50;;;7.90;70.30;;;;;;6281020;28;20744;-78
2023/12/29 00:07:08;;;;;;;4.07;3.77;;;7.80;70.40;;;;;;6285379;28;20250;-80
2023/12/29 00:10:12;;;;;;;4.27;3.97;;;7.80;70.60;;;;;;6286458;28;20231;-78
2023/12/29 00:13:21;;;;;;;3.20;3.13;;;7.80;70.70;;;;;;6278532;28;20231;-79
2023/12/29 00:16:25;;;;;;;3.80;3.70;;;7.80;70.70;;;;;;6286192;28;20240;-79
2023/12/29 00:19:28;;;;;;;3.90;3.70;;;7.80;70.90;;;;;;6277721;28;20233;-77
2023/12/29 00:22:31;;;;;;;3.87;3.60;;;7.80;70.60;;;;;;6278811;28;20314;-77
2023/12/29 00:25:37;;;;;;;3.73;3.63;;;7.80;70.60;;;;;;6273253;28;20248;-77
2023/12/29 00:28:41;;;;;;;3.83;3.83;;;7.80;70.40;;;;;;6274001;28;20234;-78
2023/12/29 00:31:44;;;;;;;3.90;3.63;;;7.80;70.60;;;;;;6284420;28;20335;-77
2023/12/29 00:34:47;;;;;;;3.90;3.80;;;7.80;70.50;;;;;;6282668;28;20244;-79
2023/12/29 00:37:51;;;;;;;4.23;4.07;;;7.80;70.30;;;;;;6283402;28;20709;-80
2023/12/29 00:40:55;;;;;;;3.63;3.43;;;7.80;70.30;;;;;;6289483;28;20236;-80
2023/12/29 00:43:59;;;;;;;3.70;3.50;;;7.90;70.20;;;;;;6280370;28;20318;-79
2023/12/29 00:47:02;;;;;;;3.57;3.37;;;7.80;70.20;;;;;;6281483;28;20264;-77
2023/12/29 00:50:06;;;;;;;3.77;3.53;;;7.80;69.80;;;;;;6279303;28;20905;-81
2023/12/29 00:53:09;;;;;;;3.60;3.50;;;7.80;70.20;;;;;;6283564;28;20249;-79
2023/12/29 00:56:13;;;;;;;3.80;3.60;;;7.80;70.10;;;;;;6279027;28;20374;-79
2023/12/29 00:59:16;;;;;;;3.40;3.20;;;7.90;70.00;;;;;;6290166;28;20229;-79
2023/12/29 01:02:19;;;;;;;3.70;3.60;;;7.90;69.80;;;;;;6293261;28;20271;-79
2023/12/29 01:05:23;;;;;;;4.33;3.50;;;7.90;69.60;;;;;;6286855;28;20747;-79
2023/12/29 01:08:26;;;;;;;3.60;3.47;;;7.90;69.50;;;;;;6280707;28;20883;-79
2023/12/29 01:11:31;;;;;;;3.80;3.60;;;7.80;69.70;;;;;;6288958;28;20303;-78
2023/12/29 01:14:34;;;;;;;3.53;3.43;;;7.80;69.60;;;;;;6268301;28;20730;-78
2023/12/29 01:17:37;;;;;;;3.70;3.50;;;7.80;69.60;;;;;;6281396;28;20253;-80
2023/12/29 01:20:41;;;;;;;3.93;3.57;;;7.90;69.30;;;;;;6278000;28;20232;-79
2023/12/29 01:23:44;;;;;;;3.90;3.47;;;7.90;69.40;;;;;;6281064;28;20252;-77
2023/12/29 01:26:48;;;;;;;3.40;3.30;;;7.80;69.50;;;;;;6281071;28;20229;-79
2023/12/29 01:29:52;;;;;;;3.90;3.70;;;7.80;69.60;;;;;;6280914;28;20244;-80
2023/12/29 01:32:55;;;;;;;4.07;3.77;;;7.80;69.60;;;;;;6268515;28;20241;-78
2023/12/29 01:35:59;;;;;;;3.83;3.53;;;7.80;69.50;;;;;;6282375;28;20255;-79
2023/12/29 01:39:13;;;;;;;4.00;3.80;;;7.80;69.40;;;;;;6286198;28;20229;-77
2023/12/29 01:42:17;;;;;;;3.70;3.50;;;7.80;69.60;;;;;;6281471;28;20331;-79
2023/12/29 01:45:23;;;;;;;4.10;3.73;;;7.80;69.70;;;;;;6284701;28;20328;-78
2023/12/29 01:48:27;;;;;;;3.30;3.20;;;7.80;69.60;;;;;;6276498;28;20238;-78
2023/12/29 01:51:31;;;;;;;4.07;3.77;;;7.80;69.50;;;;;;6284466;28;20240;-78
2023/12/29 01:54:38;;;;;;;3.73;3.60;;;7.90;69.40;;;;;;6288786;28;20243;-82
2023/12/29 01:57:43;;;;;;;3.60;3.50;;;7.90;69.20;;;;;;6282972;28;20323;-78
2023/12/29 02:00:47;;;;;;;3.70;3.60;;;7.90;69.40;;;;;;6278213;28;20237;-79
2023/12/29 02:03:50;;;;;;;3.30;3.10;;;7.80;69.60;;;;;;6288667;28;20276;-79
2023/12/29 02:06:59;;;;;;;3.73;3.60;;;7.80;69.60;;;;;;6276182;28;20234;-79
2023/12/29 02:10:02;;;;;;;4.10;3.87;;;7.80;69.50;;;;;;6280723;28;20599;-79
2023/12/29 02:13:07;;;;;;;5.07;4.10;;;7.90;69.40;;;;;;6287975;28;20312;-79
2023/12/29 02:16:17;;;;;;;3.73;3.60;;;8.00;69.40;;;;;;6284735;28;20268;-78
2023/12/29 02:19:30;;;;;;;3.60;3.50;;;8.00;69.10;;;;;;6265641;28;20237;-78
2023/12/29 02:22:33;;;;;;;3.77;3.50;;;8.00;69.30;;;;;;6281544;28;20317;-79
2023/12/29 02:25:38;;;;;;;4.00;3.73;;;8.00;69.50;;;;;;6272037;28;20240;-79
2023/12/29 02:28:45;;;;;;;3.70;3.60;;;8.00;69.40;;;;;;6272670;28;20230;-78
2023/12/29 02:31:51;;;;;;;3.50;3.40;;;8.00;69.30;;;;;;6277620;28;20373;-79
2023/12/29 02:34:55;;;;;;;3.60;3.40;;;8.00;69.40;;;;;;6278451;28;20648;-80
2023/12/29 02:38:00;;;;;;;3.73;3.63;;;8.00;69.40;;;;;;6272194;28;20237;-79
2023/12/29 02:41:07;;;;;;;3.70;3.60;;;7.90;69.60;;;;;;6286170;28;20229;-81
2023/12/29 02:44:11;;;;;;;3.63;3.53;;;8.00;69.40;;;;;;6286996;28;20328;-80
2023/12/29 02:47:16;;;;;;;3.80;3.70;;;8.00;69.10;;;;;;6281831;28;20244;-78
2023/12/29 02:50:20;;;;;;;3.77;3.57;;;8.00;69.40;;;;;;6287841;28;20389;-78
2023/12/29 02:53:23;;;;;;;3.87;3.50;;;8.00;69.20;;;;;;6280474;28;20363;-80
2023/12/29 02:56:27;;;;;;;3.43;3.43;;;8.10;69.00;;;;;;6279136;28;20315;-78
2023/12/29 02:59:30;;;;;;;3.60;3.50;;;8.10;69.00;;;;;;6278393;28;20849;-79
2023/12/29 03:02:33;;;;;;;3.50;3.40;;;8.00;69.20;;;;;;6277424;28;20778;-79
2023/12/29 03:05:36;;;;;;;3.53;3.40;;;8.00;69.20;;;;;;6285698;28;20237;-79
2023/12/29 03:08:39;;;;;;;3.80;3.70;;;8.00;69.30;;;;;;6275245;28;20561;-78
2023/12/29 03:11:44;;;;;;;3.47;3.27;;;8.00;69.10;;;;;;6261953;28;20327;-79
2023/12/29 03:14:47;;;;;;;3.40;3.30;;;8.10;68.80;;;;;;6276014;28;20892;-79
2023/12/29 03:17:50;;;;;;;3.60;3.50;;;8.20;68.60;;;;;;6276071;28;20233;-78
2023/12/29 03:20:53;;;;;;;3.73;3.53;;;8.30;68.20;;;;;;6285952;28;20233;-76
2023/12/29 03:23:57;;;;;;;3.67;3.57;;;8.20;68.50;;;;;;6285471;28;20302;-77
2023/12/29 03:27:03;;;;;;;3.77;3.57;;;8.10;68.70;;;;;;6278055;28;20261;-77
2023/12/29 03:30:07;;;;;;;3.90;3.70;;;8.10;68.70;;;;;;6278628;28;20355;-79
2023/12/29 03:33:14;;;;;;;3.87;3.60;;;8.00;68.80;;;;;;6275924;28;20283;-80
2023/12/29 03:36:18;;;;;;;3.60;3.50;;;8.10;68.70;;;;;;6282619;28;20237;-77
2023/12/29 03:39:21;;;;;;;3.67;3.43;;;8.20;68.30;;;;;;6272260;28;20323;-80
2023/12/29 03:42:25;;;;;;;3.90;3.73;;;8.20;68.40;;;;;;6279836;28;20363;-78
2023/12/29 03:45:28;;;;;;;3.33;3.30;;;8.20;68.60;;;;;;6290046;28;20240;-79
2023/12/29 03:48:31;;;;;;;3.30;3.20;;;8.20;68.60;;;;;;6276521;28;20239;-79
2023/12/29 03:51:35;;;;;;;3.50;3.50;;;8.30;68.30;;;;;;6279044;28;20229;-78
2023/12/29 03:54:38;;;;;;;3.17;3.17;;;8.30;68.20;;;;;;6271149;28;20259;-78
2023/12/29 03:57:43;;;;;;;3.40;3.30;;;8.30;68.20;;;;;;6266922;28;20230;-79
2023/12/29 04:00:46;;;;;;;3.47;3.37;;;8.20;68.50;;;;;;6276536;28;20287;-79
2023/12/29 04:03:49;;;;;;;3.50;3.30;;;8.30;68.40;;;;;;6272879;28;20233;-79
2023/12/29 04:06:53;;;;;;;3.67;3.40;;;8.40;68.10;;;;;;6282186;28;20261;-79
2023/12/29 04:09:56;;;;;;;3.50;3.40;;;8.40;68.00;;;;;;6274760;28;20241;-79
2023/12/29 04:13:01;;;;;;;3.40;3.30;;;8.40;68.00;;;;;;6275003;28;20233;-80
2023/12/29 04:16:04;;;;;;;3.30;3.20;;;8.30;68.20;;;;;;6284541;28;20355;-78
2023/12/29 04:19:11;;;;;;;3.70;3.50;;;8.30;68.00;;;;;;6282545;28;20321;-79
2023/12/29 04:22:18;;;;;;;3.23;3.10;;;8.40;67.90;;;;;;6275436;28;20226;-79
2023/12/29 04:25:21;;;;;;;3.00;3.00;;;8.30;68.00;;;;;;6277085;28;20270;-78
2023/12/29 04:28:25;;;;;;;3.47;3.47;;;8.30;68.00;;;;;;6278301;28;20241;-78
2023/12/29 04:31:28;;;;;;;3.40;3.33;;;8.30;68.00;;;;;;6275887;28;20307;-79
2023/12/29 04:34:32;;;;;;;3.40;3.20;;;8.30;67.90;;;;;;6283769;28;20248;-80
2023/12/29 04:37:35;;;;;;;3.07;2.97;;;8.40;67.90;;;;;;6278060;28;20230;-78
2023/12/29 04:40:38;;;;;;;2.73;2.73;;;8.40;67.90;;;;;;6282898;28;20337;-79
2023/12/29 04:43:42;;;;;;;3.00;3.00;;;8.40;67.70;;;;;;6281573;28;20244;-78
2023/12/29 04:46:45;;;;;;;3.13;3.00;;;8.40;67.90;;;;;;6277883;28;20557;-79
2023/12/29 04:49:48;;;;;;;2.83;2.83;;;8.40;67.90;;;;;;6283476;28;20309;-79
2023/12/29 04:52:52;;;;;;;3.03;3.03;;;8.30;68.00;;;;;;6273677;28;20368;-78
2023/12/29 04:55:55;;;;;;;2.80;2.70;;;8.30;68.20;;;;;;6282253;28;20240;-80
2023/12/29 04:59:00;;;;;;;3.00;2.93;;;8.20;68.40;;;;;;6281428;28;20241;-81
2023/12/29 05:02:03;;;;;;;3.30;3.10;;;8.20;68.30;;;;;;6272332;28;20236;-77
2023/12/29 05:05:07;;;;;;;3.27;3.07;;;8.20;68.50;;;;;;6285852;28;20240;-78
2023/12/29 05:08:11;;;;;;;3.47;3.17;;;8.30;68.50;;;;;;6282908;28;20263;-79
2023/12/29 05:11:14;;;;;;;2.90;2.90;;;8.40;68.30;;;;;;6288803;28;20237;-79
2023/12/29 05:14:18;;;;;;;3.10;3.00;;;8.40;68.50;;;;;;6287754;28;20249;-78
2023/12/29 05:17:21;;;;;;;2.77;2.77;;;8.40;68.60;;;;;;6282451;28;20234;-79
2023/12/29 05:20:24;;;;;;;3.57;3.27;;;8.30;68.70;;;;;;6286380;28;20266;-80
2023/12/29 05:23:27;;;;;;;3.03;2.90;;;8.40;68.70;;;;;;6276601;28;20716;-78
2023/12/29 05:26:30;;;;;;;3.27;3.17;;;8.40;68.60;;;;;;6277990;28;20619;-77
2023/12/29 05:29:35;;;;;;;2.70;2.70;;;8.40;68.70;;;;;;6286985;28;20242;-77
2023/12/29 05:32:38;;;;;;;2.60;2.60;;;8.50;68.60;;;;;;6279346;28;20951;-78
2023/12/29 05:35:41;;;;;;;3.77;2.70;;;8.50;68.70;;;;;;6279034;28;20238;-79
2023/12/29 05:38:47;;;;;;;2.97;2.97;;;8.50;68.60;;;;;;6265734;28;20237;-79
2023/12/29 05:41:50;;;;;;;2.97;2.93;;;8.60;68.40;;;;;;6283601;28;20378;-79
2023/12/29 05:44:54;;;;;;;2.80;2.70;;;8.60;68.50;;;;;;6273727;28;20645;-78
2023/12/29 05:47:58;;;;;;;3.10;2.97;;;8.60;68.40;;;;;;6286526;28;20256;-79
2023/12/29 05:51:08;;;;;;;2.90;2.70;;;8.60;68.10;;;;;;6281352;28;20240;-79
2023/12/29 05:54:11;;;;;;;2.90;2.90;;;8.60;68.20;;;;;;6287332;28;20229;-79
2023/12/29 05:57:15;;;;;;;2.77;2.77;;;8.60;68.00;;;;;;6273340;28;20233;-80
2023/12/29 06:00:20;;;;;;;2.80;2.80;;;8.70;67.90;;;;;;6284258;28;20765;-80
2023/12/29 06:03:23;;;;;;;3.17;3.00;;;8.70;67.90;;;;;;6287352;28;20244;-79
2023/12/29 06:06:26;;;;;;;2.77;2.67;;;8.60;68.00;;;;;;6280201;28;20241;-80
2023/12/29 06:09:30;;;;;;;2.60;2.60;;;8.60;68.20;;;;;;6272889;28;20232;-79
2023/12/29 06:12:33;;;;;;;3.00;2.90;;;8.60;67.90;;;;;;6289972;28;20233;-78
2023/12/29 06:15:38;;;;;;;3.17;3.07;;;8.70;67.70;;;;;;6286728;28;20237;-79
2023/12/29 06:18:41;;;;;;;2.80;2.80;;;8.80;67.20;;;;;;6274682;28;20253;-78
2023/12/29 06:21:44;;;;;;;2.43;2.43;;;8.80;67.10;;;;;;6279750;28;20229;-78
2023/12/29 06:24:48;;;;;;;2.93;2.83;;;8.90;66.80;;;;;;6286458;28;20237;-79
2023/12/29 06:27:51;;;;;;;2.80;2.70;;;8.90;66.80;;;;;;6279523;28;20281;-79
2023/12/29 06:30:56;;;;;;;2.93;2.93;;;9.00;66.60;;;;;;6279450;28;20240;-84
2023/12/29 06:34:01;;;;;;;2.97;2.80;;;8.90;66.80;;;;;;6272200;28;20929;-81
2023/12/29 06:37:04;;;;;;;2.80;2.80;;;9.00;66.50;;;;;;6271673;28;20417;-81
2023/12/29 06:40:09;;;;;;;2.97;2.80;;;9.00;66.60;;;;;;6273250;28;20267;-79
2023/12/29 06:43:12;;;;;;;3.37;3.10;;;8.90;66.60;;;;;;6273010;28;20226;-81
2023/12/29 06:46:17;;;;;;;2.90;2.80;;;9.00;66.60;;;;;;6272494;28;20241;-79
2023/12/29 06:49:20;;;;;;;3.30;3.10;;;9.00;66.70;;;;;;6278035;28;20241;-82
2023/12/29 06:52:24;;;;;;;3.07;2.97;;;9.00;66.40;;;;;;6285875;28;20318;-82
2023/12/29 06:55:27;;;;;;;4.40;3.37;;;9.00;66.40;;;;;;6281885;28;20325;-81
2023/12/29 06:58:32;;;;;;;3.10;3.00;;;9.10;66.20;;;;;;6279590;28;20230;-83
2023/12/29 07:01:40;;;;;;;3.00;2.90;;;9.20;66.10;;;;;;6278786;28;20264;-79
2023/12/29 07:04:44;;;;;;;3.27;3.13;;;9.10;66.30;;;;;;6285755;28;20257;-82
2023/12/29 07:07:47;;;;;;;2.97;2.87;;;9.20;66.10;;;;;;6275514;28;103198;-80
2023/12/29 07:10:50;;;;;;;3.30;3.10;;;9.20;66.00;;;;;;6295233;28;20235;-82
2023/12/29 07:13:53;;;;;;;3.20;3.10;;;9.20;66.00;;;;;;6296916;28;20267;-79
2023/12/29 07:16:58;;;;;;;3.17;3.17;;;9.20;66.00;;;;;;6303816;28;20285;-82
2023/12/29 07:20:01;;;;;;;3.27;3.10;;;9.20;65.90;;;;;;6292656;28;20792;-82
2023/12/29 07:23:05;;;;;;;2.90;2.90;;;9.20;66.00;;;;;;6302267;28;20236;-81
2023/12/29 07:26:08;;;;;;;3.40;3.13;;;9.20;65.90;;;;;;6299340;28;20315;-80
2023/12/29 07:29:12;;;;;;;2.70;2.60;;;9.20;66.10;;;;;;6296784;28;20233;-81
2023/12/29 07:32:16;;;;;;;3.53;3.27;;;9.20;65.90;;;;;;6305660;28;20285;-79
2023/12/29 07:35:19;;;;;;;3.33;3.10;;;9.20;66.00;;;;;;6301771;28;20656;-80
2023/12/29 07:38:24;;;;;;;2.70;2.70;;;9.30;66.00;;;;;;6299367;28;20239;-81
2023/12/29 07:41:27;;;;;;;2.80;2.70;;;9.20;66.30;;;;;;6300482;28;20244;-81
2023/12/29 07:44:33;;;;;;;3.17;2.90;;;9.20;66.20;;;;;;6307033;28;20241;-80
2023/12/29 07:47:37;;;;;;;3.27;3.07;;;9.20;66.20;;;;;;6297821;28;20247;-81
2023/12/29 07:50:41;;;;;;;3.33;3.20;;;9.20;66.20;;;;;;6301046;28;20229;-81
2023/12/29 07:53:44;;;;;;;3.33;3.23;;;9.20;66.20;;;;;;6307123;28;20346;-83
2023/12/29 07:56:47;;;;;;;2.83;2.83;;;9.20;66.20;;;;;;6297963;28;20305;-81
2023/12/29 07:59:50;;;;;;;3.20;3.10;;;9.20;66.40;;;;;;6308009;28;20759;-79
2023/12/29 08:02:55;;;;;;;3.00;2.90;;;9.20;66.40;;;;;;6305537;28;21011;-79
2023/12/29 08:05:58;;;;;;;2.87;2.77;;;9.20;66.40;;;;;;6310288;28;20723;-80
2023/12/29 08:09:02;;;;;;;3.03;2.93;;;9.40;66.20;;;;;;6295619;28;20892;-83
2023/12/29 08:12:05;;;;;;;3.47;3.20;;;9.40;66.10;;;;;;6301188;28;20751;-81
2023/12/29 08:15:09;;;;;;;3.80;3.43;;;9.40;66.00;;;;;;6302485;28;20256;-80
2023/12/29 08:18:13;;;;;;;3.20;2.90;;;9.50;65.90;;;;;;6301806;28;20239;-83
2023/12/29 08:21:20;;;;;;;3.10;3.00;;;9.50;65.80;;;;;;6304945;28;20237;-78
2023/12/29 08:24:23;;;;;;;3.07;2.97;;;9.50;65.50;;;;;;6300588;28;20476;-79
2023/12/29 08:27:26;;;;;;;2.93;2.93;;;9.60;65.60;;;;;;6304835;28;20320;-79
2023/12/29 08:30:29;;;;;;;3.03;2.93;;;9.50;65.80;;;;;;6304275;28;20624;-80
2023/12/29 08:33:34;;;;;;;3.07;2.97;;;9.60;65.70;;;;;;6312686;28;20862;-79
2023/12/29 08:36:37;;;;;;;3.30;3.20;;;9.70;65.30;;;;;;6309631;28;20328;-78
2023/12/29 08:39:40;;;;;;;2.93;2.93;;;9.80;65.20;;;;;;6316235;28;20247;-80
2023/12/29 08:42:43;;;;;;;3.33;3.20;;;9.70;65.20;;;;;;6314017;28;20233;-78
2023/12/29 08:45:46;;;;;;;3.50;3.37;;;9.70;65.30;;;;;;6320311;28;20240;-80
2023/12/29 08:48:51;;;;;;;3.17;3.07;;;9.80;65.30;;;;;;6305692;28;20235;-80
2023/12/29 08:51:55;;;;;;;3.20;3.10;;;9.90;64.90;;;;;;6311025;28;20244;-77
2023/12/29 08:54:58;;;;;;;3.50;3.30;;;9.90;65.00;;;;;;6306434;28;20411;-79
2023/12/29 08:58:01;;;;;;;3.57;3.40;;;9.90;65.00;;;;;;6306523;28;20614;-77
2023/12/29 09:01:05;;;;;;;4.37;2.80;;;9.90;65.00;;;;;;6298580;28;20758;-75
2023/12/29 09:04:10;;;;;;;3.53;3.40;;;10.00;64.80;;;;;;6309479;28;20240;-80
2023/12/29 09:07:14;;;;;;;3.20;3.10;;;9.80;65.20;;;;;;6304099;28;20240;-80
2023/12/29 09:10:17;;;;;;;3.10;2.90;;;9.80;65.30;;;;;;6308901;28;20220;-79
2023/12/29 09:13:22;;;;;;;3.73;3.47;;;9.80;65.40;;;;;;6300665;28;20295;-79
2023/12/29 09:16:25;;;;;;;3.50;3.17;;;9.90;65.10;;;;;;6309308;28;20237;-80
2023/12/29 09:19:30;;;;;;;3.07;3.03;;;10.00;65.00;;;;;;6306868;28;20333;-81
2023/12/29 09:22:42;;;;;;;4.20;3.43;;;10.00;64.90;;;;;;6312864;28;20233;-79
2023/12/29 09:25:45;;;;;;;3.33;3.13;;;10.00;65.10;;;;;;6307886;28;20346;-81
2023/12/29 09:28:49;;;;;;;3.00;2.90;;;10.00;65.00;;;;;;6313459;28;20743;-81
2023/12/29 09:31:52;;;;;;;3.40;3.07;;;10.00;64.90;;;;;;6322693;28;20248;-80
2023/12/29 09:34:56;;;;;;;4.90;3.07;;;10.10;64.70;;;;;;6311043;28;20765;-81
2023/12/29 09:38:00;;;;;;;3.07;2.97;;;10.20;64.60;;;;;;6302384;28;20230;-82
2023/12/29 09:41:10;;;;;;;3.33;3.13;;;10.30;64.50;;;;;;6308247;28;20618;-79
2023/12/29 09:44:15;;;;;;;4.13;3.10;;;10.30;64.20;;;;;;6297890;28;20225;-78
2023/12/29 09:47:23;;;;;;;3.53;3.20;;;10.40;63.90;;;;;;6304545;28;20240;-75
2023/12/29 09:50:28;;;;;;;3.63;3.33;;;10.30;64.10;;;;;;6303050;28;20237;-76
2023/12/29 09:53:32;;;;;;;3.70;3.47;;;10.30;64.30;;;;;;6307348;28;20241;-75
2023/12/29 09:56:35;;;;;;;3.20;3.10;;;10.20;64.30;;;;;;6297763;28;20701;-75
2023/12/29 09:59:41;;;;;;;3.00;2.90;;;10.10;64.50;;;;;;6306905;28;20236;-77
2023/12/29 10:02:45;;;;;;;4.70;3.40;;;10.10;64.70;;;;;;6304414;28;20245;-76
2023/12/29 10:05:56;;;;;;;3.37;3.10;;;10.20;64.50;;;;;;6306403;28;20244;-76
2023/12/29 10:09:00;;;;;;;3.17;3.07;;;10.20;64.30;;;;;;6308970;28;20229;-77
2023/12/29 10:12:05;;;;;;;3.43;3.30;;;10.30;64.30;;;;;;6305955;28;20228;-76
2023/12/29 10:15:16;;;;;;;3.60;3.40;;;10.30;64.10;;;;;;6302525;28;20340;-77
2023/12/29 10:18:31;;;;;;;4.00;3.40;;;10.30;64.20;;;;;;6306849;28;20434;-76
2023/12/29 10:21:45;;;;;;;4.10;3.00;;;10.30;64.40;;;;;;6299961;28;20229;-75
2023/12/29 10:24:50;;;;;;;3.67;2.97;;;10.40;63.70;;;;;;6307969;28;20257;-74
2023/12/29 10:27:53;;;;;;;3.10;2.87;;;10.50;63.60;;;;;;6294623;28;20775;-75
2023/12/29 10:30:57;;;;;;;3.70;3.47;;;10.60;63.50;;;;;;6308475;28;20228;-76
2023/12/29 10:34:18;;;;;;;3.10;2.90;;;10.60;63.40;;;;;;6302971;28;20311;-75
2023/12/29 10:37:25;;;;;;;3.17;2.93;;;10.60;63.10;;;;;;6290848;28;20234;-76
2023/12/29 10:40:28;;;;;;;3.67;3.10;;;10.70;63.20;;;;;;6298234;28;20244;-74
2023/12/29 10:43:31;;;;;;;3.33;3.13;;;10.70;63.20;;;;;;6302138;28;20829;-76
2023/12/29 10:46:34;;;;;;;2.97;2.87;;;10.70;63.00;;;;;;6295010;28;20328;-76
2023/12/29 10:49:38;;;;;;;2.80;2.70;;;10.80;62.70;;;;;;6305209;28;20317;-76
2023/12/29 10:52:43;;;;;;;2.93;2.80;;;10.70;62.90;;;;;;6303121;28;20244;-75
2023/12/29 10:55:46;;;;;;;3.23;2.93;;;10.70;62.90;;;;;;6295616;28;20765;-75
2023/12/29 10:59:00;;;;;;;2.90;2.80;;;10.70;62.60;;;;;;6304765;28;20833;-77
2023/12/29 11:02:04;;;;;;;3.07;2.80;;;10.80;62.30;;;;;;6305599;28;20236;-75
2023/12/29 11:05:10;;;;;;;2.77;2.77;;;10.90;62.30;;;;;;6299720;28;20261;-75
2023/12/29 11:08:20;;;;;;;3.40;3.10;;;10.80;62.20;;;;;;6297206;28;20233;-76
2023/12/29 11:11:23;;;;;;;3.40;3.20;;;10.80;62.50;;;;;;6298359;28;20238;-75
2023/12/29 11:14:28;;;;;;;5.47;2.97;;;10.80;62.20;;;;;;6310853;28;20232;-74
2023/12/29 11:17:33;;;;;;;3.70;2.90;;;10.80;62.20;;;;;;6300668;28;20297;-75
2023/12/29 11:20:38;;;;;;;3.93;3.63;;;10.90;62.20;;;;;;6313918;28;20225;-77
2023/12/29 11:23:43;;;;;;;6.00;2.90;;;10.90;61.90;;;;;;6299909;28;20684;-77
2023/12/29 11:26:46;;;;;;;3.27;3.00;;;10.90;61.40;;;;;;6303539;28;20326;-77
2023/12/29 11:29:50;;;;;;;3.37;2.93;;;10.90;61.60;;;;;;6308873;28;20236;-78
2023/12/29 11:32:58;;;;;;;3.13;2.93;;;10.90;61.60;;;;;;6301923;28;20724;-77
2023/12/29 11:36:09;;;;;;;4.17;2.87;;;10.90;61.60;;;;;;6311062;28;20290;-76
2023/12/29 11:39:31;;;;;;;3.20;3.10;;;10.90;61.80;;;;;;6295373;28;20259;-76
2023/12/29 11:42:39;;;;;;;2.83;2.73;;;10.90;61.70;;;;;;6300730;28;20237;-74
2023/12/29 11:45:42;;;;;;;3.00;2.90;;;11.00;61.50;;;;;;6305054;28;20709;-76
2023/12/29 11:48:56;;;;;;;3.07;2.87;;;11.00;61.30;;;;;;6304097;28;20740;-76
2023/12/29 11:51:59;;;;;;;3.33;3.00;;;10.90;61.80;;;;;;6296990;28;20878;-77
2023/12/29 11:55:11;;;;;;;3.00;2.90;;;11.00;61.50;;;;;;6309588;28;20331;-75
2023/12/29 11:58:30;;;;;;;3.20;2.90;;;11.00;61.50;;;;;;6301265;28;20450;-74
2023/12/29 12:01:36;;;;;;;4.00;3.40;;;11.00;61.60;;;;;;6287187;28;20237;-76
2023/12/29 12:04:44;;;;;;;3.53;3.30;;;10.90;61.70;;;;;;6303778;28;20313;-77
2023/12/29 12:08:01;;;;;;;3.57;3.37;;;10.90;61.70;;;;;;6308003;28;20253;-76
2023/12/29 12:11:37;;;;;;;3.43;3.13;;;10.90;62.00;;;;;;6302377;28;20256;-75
2023/12/29 12:14:50;;;;;;;3.40;3.10;;;10.90;62.30;;;;;;6296794;28;20284;-75
2023/12/29 12:17:53;;;;;;;2.87;2.77;;;11.00;62.50;;;;;;6300411;28;20251;-77
2023/12/29 12:20:57;;;;;;;3.10;2.80;;;11.00;62.80;;;;;;6308349;28;20755;-76
2023/12/29 12:24:02;;;;;;;3.03;2.77;;;10.90;63.00;;;;;;6305956;28;20240;-76
2023/12/29 12:27:11;;;;;;;3.27;3.07;;;10.90;63.20;;;;;;6309597;28;20302;-75
2023/12/29 12:30:19;;;;;;;4.17;3.70;;;10.90;63.20;;;;;;6308044;28;20701;-75
2023/12/29 12:33:25;;;;;;;3.47;3.23;;;10.90;63.70;;;;;;6303661;28;20240;-74
2023/12/29 12:36:28;;;;;;;2.97;2.77;;;10.70;65.00;;;;;;6299378;28;20234;-76
2023/12/29 12:39:39;;;;;;;4.00;2.90;;;10.40;65.90;;;;;;6304379;28;20225;-76
2023/12/29 12:42:43;;;;;;;3.33;3.13;;;10.50;65.70;;;;;;6306742;28;20310;-76
2023/12/29 12:45:56;;;;;;;3.30;3.20;;;10.40;66.00;;;;;;6300186;28;20732;-76
2023/12/29 12:49:00;;;;;;;3.07;2.80;;;10.30;66.60;;;;;;6295788;28;20900;-75
2023/12/29 12:52:04;;;;;;;3.40;3.10;;;10.30;66.60;;;;;;6294249;28;20366;-75
2023/12/29 12:55:09;;;;;;;3.40;3.10;;;10.30;67.20;;;;;;6294695;28;20240;-78
2023/12/29 12:58:13;;;;;;;3.50;3.30;;;10.20;67.40;;;;;;6301197;28;20885;-76
2023/12/29 13:01:18;;;;;;;3.20;3.00;;;10.10;68.00;;;;;;6308864;28;20232;-75
2023/12/29 13:04:23;;;;;;;3.93;3.40;;;10.10;68.00;;;;;;6307439;28;20290;-75
2023/12/29 13:07:28;;;;;;;3.57;3.33;;;10.10;68.30;;;;;;6303586;28;20234;-76
2023/12/29 13:10:31;;;;;;;3.57;3.30;;;10.10;69.00;;;;;;6298453;28;20236;-77
2023/12/29 13:13:39;;;;;;;3.20;3.10;;;10.00;69.50;;;;;;6299489;28;20242;-76
2023/12/29 13:16:44;;;;;;;3.67;3.37;;;10.00;70.00;;;;;;6301370;28;20226;-76
2023/12/29 13:19:47;;;;;;;3.60;3.43;;;10.00;70.30;;;;;;6294108;28;20229;-76
2023/12/29 13:22:51;;;;;;;3.57;3.40;;;10.00;70.20;;;;;;6310047;28;20249;-76
2023/12/29 13:25:56;;;;;;;3.87;3.70;;;10.00;69.50;;;;;;6303024;28;20297;-74
2023/12/29 13:28:59;;;;;;;4.20;3.90;;;10.00;69.80;;;;;;6312069;28;20267;-76
2023/12/29 13:32:08;;;;;;;3.63;3.40;;;10.00;69.70;;;;;;6307312;28;20245;-75
2023/12/29 13:35:20;;;;;;;6.37;4.80;;;10.00;69.10;;;;;;6307323;28;20260;-76
2023/12/29 13:38:29;;;;;;;3.40;3.20;;;10.00;69.10;;;;;;6302785;28;20236;-75
2023/12/29 13:41:34;;;;;;;3.47;3.30;;;10.20;68.50;;;;;;6289121;28;20307;-74
2023/12/29 13:44:39;;;;;;;3.60;3.30;;;10.20;68.70;;;;;;6304828;28;20232;-75
2023/12/29 13:47:44;;;;;;;4.00;3.77;;;10.20;68.50;;;;;;6307454;28;20275;-74
2023/12/29 13:50:48;;;;;;;2.97;2.87;;;10.20;68.60;;;;;;6306645;28;20222;-76
2023/12/29 13:53:59;;;;;;;3.13;2.97;;;10.20;68.20;;;;;;6304671;28;20229;-76
2023/12/29 13:57:02;;;;;;;3.17;3.07;;;10.30;68.10;;;;;;6302936;28;20246;-75
2023/12/29 14:00:20;;;;;;;3.37;3.17;;;10.30;68.20;;;;;;6308609;28;20714;-76
2023/12/29 14:03:33;;;;;;;4.37;3.27;;;10.20;68.00;;;;;;6309684;28;20245;-75
2023/12/29 14:06:42;;;;;;;3.23;3.03;;;10.20;68.40;;;;;;6312465;28;20229;-76
2023/12/29 14:09:45;;;;;;;3.00;2.90;;;10.20;68.30;;;;;;6305786;28;20861;-75
2023/12/29 14:12:49;;;;;;;3.53;3.33;;;10.20;68.00;;;;;;6302498;28;20891;-78
2023/12/29 14:15:52;;;;;;;3.03;2.80;;;10.30;67.90;;;;;;6309629;28;20242;-76
2023/12/29 14:18:58;;;;;;;3.60;3.30;;;10.30;68.00;;;;;;6308155;28;20864;-75
2023/12/29 14:22:01;;;;;;;3.43;3.33;;;10.30;67.80;;;;;;6301042;28;20236;-76
2023/12/29 14:25:07;;;;;;;2.80;2.70;;;10.40;67.70;;;;;;6300783;28;20279;-76
2023/12/29 14:28:16;;;;;;;2.93;2.93;;;10.30;67.70;;;;;;6296211;28;20324;-74
2023/12/29 14:31:20;;;;;;;3.07;3.07;;;10.40;67.70;;;;;;6302674;28;20301;-76
2023/12/29 14:34:24;;;;;;;2.80;2.80;;;10.40;67.30;;;;;;6308658;28;20240;-75
2023/12/29 14:37:28;;;;;;;2.77;2.70;;;10.40;67.20;;;;;;6303992;28;20423;-76
2023/12/29 14:40:34;;;;;;;3.00;2.90;;;10.50;67.00;;;;;;6303723;28;20312;-78
2023/12/29 14:43:37;;;;;;;2.60;2.50;;;10.50;67.00;;;;;;6303504;28;20255;-77
2023/12/29 14:46:44;;;;;;;3.93;2.67;;;10.50;67.10;;;;;;6306247;28;20859;-76
2023/12/29 14:49:48;;;;;;;2.50;2.40;;;10.40;67.10;;;;;;6309416;28;20316;-76
2023/12/29 14:52:51;;;;;;;2.60;2.50;;;10.50;66.60;;;;;;6301316;28;20240;-78
2023/12/29 14:55:54;;;;;;;2.40;2.40;;;10.60;66.60;;;;;;6307313;28;20370;-76
2023/12/29 14:58:57;;;;;;;2.50;2.50;;;10.50;66.70;;;;;;6300964;28;20363;-75
2023/12/29 15:02:01;;;;;;;2.97;2.87;;;10.50;66.90;;;;;;6306512;28;20321;-76
2023/12/29 15:05:06;;;;;;;2.70;2.60;;;10.50;67.00;;;;;;6302972;28;20324;-76
2023/12/29 15:08:09;;;;;;;2.80;2.70;;;10.50;67.30;;;;;;6301514;28;20237;-75
2023/12/29 15:11:12;;;;;;;2.90;2.80;;;10.40;68.30;;;;;;6298263;28;20316;-77
2023/12/29 15:14:15;;;;;;;2.93;2.73;;;10.30;68.70;;;;;;6308144;28;20755;-76
2023/12/29 15:17:18;;;;;;;2.60;2.60;;;10.20;68.80;;;;;;6305715;28;20315;-76
2023/12/29 15:20:23;;;;;;;3.47;3.37;;;10.20;68.60;;;;;;6300563;28;20232;-74
2023/12/29 15:23:27;;;;;;;3.00;2.90;;;10.20;68.60;;;;;;6298160;28;20266;-74
2023/12/29 15:26:31;;;;;;;2.60;2.60;;;10.20;68.50;;;;;;6299706;28;20225;-76
2023/12/29 15:29:34;;;;;;;2.33;2.33;;;10.30;67.90;;;;;;6307963;28;20783;-75
2023/12/29 15:32:37;;;;;;;2.60;2.50;;;10.40;68.20;;;;;;6301177;28;20377;-75
2023/12/29 15:35:42;;;;;;;2.40;2.40;;;10.30;68.80;;;;;;6305224;28;20258;-76
2023/12/29 15:38:45;;;;;;;2.47;2.33;;;10.10;70.10;;;;;;6300714;28;20877;-77
2023/12/29 15:41:48;;;;;;;2.70;2.50;;;10.10;70.50;;;;;;6309048;28;20314;-76
2023/12/29 15:44:52;;;;;;;3.10;3.00;;;10.00;70.50;;;;;;6302819;28;20374;-76
2023/12/29 15:47:55;;;;;;;3.23;3.13;;;10.00;70.50;;;;;;6307975;28;20237;-76
2023/12/29 15:50:59;;;;;;;2.70;2.70;;;10.00;69.90;;;;;;6300987;28;20239;-76
2023/12/29 15:54:03;;;;;;;2.70;2.57;;;10.10;69.60;;;;;;6307823;28;20233;-76
2023/12/29 15:57:07;;;;;;;2.80;2.80;;;10.10;69.30;;;;;;6299356;28;20260;-77
2023/12/29 16:00:13;;;;;;;2.60;2.50;;;10.10;69.30;;;;;;6304271;28;20807;-76
2023/12/29 16:03:16;;;;;;;3.10;2.90;;;10.10;69.10;;;;;;6296607;28;20233;-77
2023/12/29 16:06:23;;;;;;;3.73;3.63;;;10.10;69.10;;;;;;6300117;28;20756;-76
2023/12/29 16:09:26;;;;;;;3.07;3.07;;;10.20;69.00;;;;;;6299413;28;20245;-75